createdAt,value
2022-09-12T00:05:27.860Z,37.16
2022-09-12T00:12:13.126Z,37.1
2022-09-12T00:18:39.424Z,37.07
2022-09-12T00:25:12.447Z,36.98
2022-09-12T00:32:08.486Z,36.97
2022-09-12T00:38:51.961Z,37.02
2022-09-12T00:45:28.158Z,37.03
2022-09-12T00:52:28.895Z,36.98
2022-09-12T00:59:22.245Z,36.95
2022-09-12T01:06:07.568Z,36.97
2022-09-12T01:12:50.829Z,36.97
2022-09-12T01:19:50.244Z,37.03
2022-09-12T01:26:52.550Z,37.02
2022-09-12T01:34:01.823Z,36.97
2022-09-12T01:41:11.190Z,37
2022-09-12T01:48:29.270Z,36.99
2022-09-12T01:55:39.008Z,37.02
2022-09-12T02:03:00.160Z,36.88
2022-09-12T02:10:13.123Z,36.91
2022-09-12T02:17:16.894Z,36.93
2022-09-12T02:24:08.591Z,36.93
2022-09-12T02:31:16.950Z,36.97
2022-09-12T02:38:29.703Z,36.92
2022-09-12T02:45:06.286Z,36.93
2022-09-12T02:52:06.265Z,36.92
2022-09-12T02:58:58.259Z,36.88
2022-09-12T03:06:07.233Z,36.93
2022-09-12T03:13:14.992Z,36.69
2022-09-12T03:20:17.324Z,36.96
2022-09-12T03:27:40.042Z,36.94
2022-09-12T03:34:29.348Z,36.9
2022-09-12T03:41:05.975Z,36.93
2022-09-12T03:47:39.062Z,36.96
2022-09-12T03:54:17.066Z,36.96
2022-09-12T04:00:50.337Z,37.03
2022-09-12T04:07:22.987Z,37.01
2022-09-12T04:14:02.300Z,36.95
2022-09-12T04:20:33.401Z,36.96
2022-09-12T04:27:08.627Z,36.83
2022-09-12T04:33:44.070Z,36.89
2022-09-12T04:40:28.165Z,36.89
2022-09-12T04:47:00.428Z,36.9
2022-09-12T04:53:28.509Z,36.89
2022-09-12T05:00:07.160Z,36.9
2022-09-12T05:06:46.698Z,36.94
2022-09-12T05:13:22.332Z,36.91
2022-09-12T05:19:58.341Z,36.89
2022-09-12T05:26:45.451Z,36.95
2022-09-12T05:33:30.403Z,36.92
2022-09-12T05:40:02.785Z,36.93
2022-09-12T05:46:45.223Z,36.88
2022-09-12T05:53:19.297Z,36.91
2022-09-12T06:00:07.237Z,36.91
2022-09-12T06:06:48.903Z,36.91
2022-09-12T06:13:22.355Z,36.94
2022-09-12T06:20:03.591Z,36.88
2022-09-12T06:26:34.396Z,36.91
2022-09-12T06:33:18.052Z,36.9
2022-09-12T06:40:02.639Z,36.89
2022-09-12T06:46:31.193Z,36.93
2022-09-12T06:53:01.467Z,36.89
2022-09-12T06:59:29.353Z,36.89
2022-09-12T07:06:13.184Z,36.9
2022-09-12T07:12:41.132Z,36.84
2022-09-12T07:19:16.687Z,36.88
2022-09-12T07:25:54.497Z,36.87
2022-09-12T07:32:34.400Z,36.87
2022-09-12T07:39:04.329Z,36.8
2022-09-12T07:45:37.390Z,36.85
2022-09-12T07:52:14.383Z,36.82
2022-09-12T07:58:48.111Z,36.86
2022-09-12T08:05:18.790Z,36.85
2022-09-12T08:12:00.206Z,36.89
2022-09-12T08:18:31.176Z,36.9
2022-09-12T08:25:02.785Z,36.88
2022-09-12T08:31:57.641Z,36.97
2022-09-12T08:38:29.333Z,36.91
2022-09-12T08:45:19.269Z,36.96
2022-09-12T08:52:06.124Z,36.78
2022-09-12T08:59:14.444Z,36.83
2022-09-12T09:06:28.716Z,36.8
2022-09-12T09:13:43.811Z,36.89
2022-09-12T09:20:34.478Z,36.89
2022-09-12T09:27:43.271Z,37.06
2022-09-12T09:35:02.481Z,37
2022-09-12T09:42:10.435Z,37.03
2022-09-12T09:49:24.274Z,37.02
2022-09-12T09:56:38.115Z,37.03
2022-09-12T10:03:54.815Z,37.12
2022-09-12T10:11:12.478Z,37.06
2022-09-12T10:18:24.163Z,37.12
2022-09-12T10:25:24.346Z,37.1
2022-09-12T10:32:18.875Z,37.07
2022-09-12T10:39:24.260Z,37.14
2022-09-12T10:46:13.209Z,37.13
2022-09-12T10:52:57.875Z,37.26
2022-09-12T10:59:52.739Z,37.24
2022-09-12T11:06:59.694Z,37.21
2022-09-12T11:13:54.532Z,37.31
2022-09-12T11:21:11.433Z,37.26
2022-09-12T11:28:15.387Z,37.23
2022-09-12T11:35:18.511Z,37.24
2022-09-12T11:42:27.173Z,37.24
2022-09-12T11:49:38.507Z,37.13
2022-09-12T11:56:48.525Z,37.06
2022-09-12T12:04:00.434Z,36.96
2022-09-12T12:11:09.726Z,36.79
2022-09-12T12:17:58.829Z,36.87
2022-09-12T12:31:56.272Z,36.83
2022-09-12T12:38:43.350Z,36.76
2022-09-12T12:45:27.293Z,36.89
2022-09-12T12:52:19.321Z,36.79
2022-09-12T12:59:13.385Z,36.77
2022-09-12T13:06:05.772Z,36.9
2022-09-12T13:13:03.301Z,36.81
2022-09-12T13:20:27.059Z,36.65
2022-09-12T13:27:27.257Z,36.77
2022-09-12T13:34:18.063Z,36.59
2022-09-12T13:41:06.602Z,36.53
2022-09-12T13:48:04.737Z,36.49
2022-09-12T13:55:07.476Z,36.43
2022-09-12T14:01:53.586Z,36.27
2022-09-12T14:08:44.388Z,36.16
2022-09-12T14:15:34.686Z,36.07
2022-09-12T14:22:21.896Z,35.91
2022-09-12T14:28:56.689Z,35.83
2022-09-12T14:35:44.041Z,35.61
2022-09-12T14:42:46.627Z,35.45
2022-09-12T14:49:36.550Z,35.36
2022-09-12T14:56:29.971Z,35.36
2022-09-12T15:03:31.775Z,35.54
2022-09-12T15:10:33.660Z,35.15
2022-09-12T15:17:14.625Z,35.09
2022-09-12T15:23:56.472Z,34.96
2022-09-12T15:30:33.457Z,35.31
2022-09-12T15:37:12.449Z,35.42
2022-09-12T15:43:46.676Z,35.31
2022-09-12T15:50:25.764Z,35.4
2022-09-12T15:57:15.357Z,35.55
2022-09-12T16:03:56.580Z,35.62
2022-09-12T16:10:36.979Z,35.67
2022-09-12T16:17:17.305Z,35.88
2022-09-12T16:23:40.536Z,36.12
2022-09-12T16:30:15.029Z,36.35
2022-09-12T16:36:50.352Z,36.37
2022-09-12T16:43:19.486Z,36.54
2022-09-12T16:49:49.799Z,36.54
2022-09-12T16:56:24.369Z,36.74
2022-09-12T17:02:50.748Z,36.7
2022-09-12T17:09:34.272Z,36.75
2022-09-12T17:16:09.323Z,36.88
2022-09-12T17:22:44.692Z,37.02
2022-09-12T17:29:12.370Z,37.06
2022-09-12T17:35:41.902Z,37.17
2022-09-12T17:42:21.538Z,37.24
2022-09-12T17:48:47.461Z,37.33
2022-09-12T17:55:29.463Z,37.43
2022-09-12T18:01:56.111Z,37.53
2022-09-12T18:08:33.508Z,37.53
2022-09-12T18:15:05.320Z,37.49
2022-09-12T18:21:38.756Z,37.63
2022-09-12T18:28:09.285Z,37.67
2022-09-12T18:34:38.715Z,37.69
2022-09-12T18:41:14.166Z,37.67
2022-09-12T18:47:42.330Z,37.77
2022-09-12T18:54:12.541Z,37.71
2022-09-12T19:00:44.733Z,37.81
2022-09-12T19:07:23.508Z,37.79
2022-09-12T19:13:42.919Z,37.82
2022-09-12T19:20:20.767Z,37.89
2022-09-12T19:26:47.537Z,37.85
2022-09-12T19:33:21.417Z,37.97
2022-09-12T19:39:50.869Z,37.9
2022-09-12T19:46:38.802Z,38.01
2022-09-12T19:53:11.491Z,37.99
2022-09-12T19:59:40.782Z,38.04
2022-09-12T20:06:12.697Z,38.01
2022-09-12T20:12:48.500Z,37.81
2022-09-12T20:19:22.905Z,37.93
2022-09-12T20:25:52.475Z,37.93
2022-09-12T20:32:42.750Z,37.92
2022-09-12T20:39:15.750Z,37.84
2022-09-12T20:45:47.835Z,37.83
2022-09-12T20:52:20.596Z,37.83
2022-09-12T20:58:51.187Z,37.85
2022-09-12T21:05:18.793Z,37.8
2022-09-12T21:11:46.794Z,37.76
2022-09-12T21:18:22.608Z,37.79
2022-09-12T21:25:01.498Z,37.74
2022-09-12T21:31:32.661Z,37.76
2022-09-12T21:37:59.260Z,37.8
2022-09-12T21:44:31.658Z,37.72
2022-09-12T21:51:05.345Z,37.82
2022-09-12T21:57:35.497Z,37.82
2022-09-12T22:04:06.819Z,37.8
2022-09-12T22:10:30.353Z,37.75
2022-09-12T22:16:50.535Z,37.76
2022-09-12T22:23:24.918Z,37.74
2022-09-12T22:30:09.545Z,37.76
2022-09-12T22:36:34.943Z,37.78
2022-09-12T22:43:12.492Z,37.76
2022-09-12T22:49:46.039Z,37.74
2022-09-12T22:56:10.529Z,37.73
2022-09-12T23:02:43.197Z,37.72
2022-09-12T23:09:10.848Z,37.68
2022-09-12T23:15:44.934Z,37.71
2022-09-12T23:22:17.421Z,37.67
2022-09-12T23:28:53.026Z,37.61
2022-09-12T23:35:21.611Z,37.57
2022-09-12T23:41:59.278Z,37.59
2022-09-12T23:48:23.434Z,37.56
2022-09-12T23:54:49.435Z,37.55
